Time;durP1;ratioP1;P1;durP2;ratioP2;P2;SDS_P1;SDS_P2;PMS_P1;PMS_P2;Temp;Humidity;BMP_temperature;BMP_pressure;BME280_temperature;BME280_humidity;BME280_pressure;Samples;Min_cycle;Max_cycle;Signal;HPM_P1;HPM_P2
2022/07/06 00:01:33;;;;;;;1.80;1.23;;;;;;;16.83;55.95;101786.69;4966156;28;20593;-68
2022/07/06 00:03:58;;;;;;;1.38;1.17;;;;;;;16.65;56.01;101773.31;4935875;28;20253;-68
2022/07/06 00:06:24;;;;;;;4.78;1.15;;;;;;;16.69;56.00;101776.53;4962935;28;20017;-68
2022/07/06 00:08:49;;;;;;;1.45;1.30;;;;;;;16.66;56.42;101775.00;4951703;28;20033;-67
2022/07/06 00:11:15;;;;;;;3.15;1.60;;;;;;;16.59;56.69;101774.75;4946706;28;20505;-68
2022/07/06 00:13:40;;;;;;;2.25;1.35;;;;;;;16.53;57.00;101791.41;4961922;28;20002;-67
2022/07/06 00:16:05;;;;;;;1.30;1.20;;;;;;;16.47;57.08;101797.34;4953265;28;20018;-69
2022/07/06 00:18:31;;;;;;;1.50;1.40;;;;;;;16.45;57.36;101788.63;4965594;28;20862;-69
2022/07/06 00:20:57;;;;;;;2.60;1.50;;;;;;;16.28;57.50;101795.63;4986725;28;20006;-67
2022/07/06 00:23:22;;;;;;;1.65;1.30;;;;;;;16.32;58.01;101789.00;4957162;28;20013;-67
2022/07/06 00:25:48;;;;;;;1.95;1.80;;;;;;;16.22;57.57;101798.88;4964357;28;20041;-67
2022/07/06 00:28:13;;;;;;;2.55;1.50;;;;;;;16.10;57.63;101788.41;4983277;28;20488;-67
2022/07/06 00:30:39;;;;;;;2.53;1.55;;;;;;;16.14;57.44;101791.59;4964535;28;20029;-68
2022/07/06 00:33:04;;;;;;;3.25;1.60;;;;;;;16.05;57.83;101781.81;4974425;28;20198;-68
2022/07/06 00:35:30;;;;;;;3.45;1.55;;;;;;;15.94;58.00;101780.16;4947929;28;20022;-68
2022/07/06 00:37:55;;;;;;;5.97;1.70;;;;;;;15.84;58.12;101788.22;4947036;28;20117;-68
2022/07/06 00:40:20;;;;;;;2.17;1.42;;;;;;;15.82;58.07;101784.88;4933526;28;20025;-68
2022/07/06 00:42:47;;;;;;;2.78;1.55;;;;;;;15.89;58.01;101791.28;4964551;28;20010;-69
2022/07/06 00:45:13;;;;;;;2.10;1.90;;;;;;;15.69;58.44;101792.31;4948739;28;20028;-68
2022/07/06 00:47:39;;;;;;;3.65;1.90;;;;;;;15.68;59.01;101786.13;4975195;28;20037;-68
2022/07/06 00:50:14;;;;;;;2.20;1.90;;;;;;;15.67;58.79;101794.28;4974390;28;20092;-69
2022/07/06 00:52:44;;;;;;;2.17;1.83;;;;;;;15.61;58.96;101796.53;4962701;28;20279;-67
2022/07/06 00:55:10;;;;;;;2.67;1.80;;;;;;;15.59;59.38;101800.31;4946430;28;20102;-68
2022/07/06 00:57:36;;;;;;;2.15;2.00;;;;;;;15.55;59.55;101801.59;4967870;28;20117;-68
2022/07/06 01:00:06;;;;;;;3.03;1.73;;;;;;;15.66;59.44;101798.75;4947009;28;20002;-68
2022/07/06 01:02:31;;;;;;;2.30;1.90;;;;;;;15.68;59.05;101807.47;4966269;28;20025;-66
2022/07/06 01:04:57;;;;;;;2.05;1.70;;;;;;;15.59;59.36;101803.00;4943569;28;20961;-67
2022/07/06 01:07:22;;;;;;;2.85;1.98;;;;;;;15.38;59.82;101804.00;4950943;28;20025;-67
2022/07/06 01:09:48;;;;;;;2.50;1.90;;;;;;;15.37;60.02;101799.66;4926456;28;20080;-68
2022/07/06 01:12:13;;;;;;;2.60;2.03;;;;;;;15.34;59.83;101797.28;4964828;28;21035;-67
2022/07/06 01:14:39;;;;;;;2.38;2.17;;;;;;;15.32;59.97;101801.91;4955326;28;20043;-68
2022/07/06 01:17:04;;;;;;;3.42;1.80;;;;;;;15.29;59.90;101796.88;4964040;28;20019;-68
2022/07/06 01:19:29;;;;;;;2.25;1.63;;;;;;;15.16;60.33;101798.97;4941221;28;20463;-68
2022/07/06 01:21:55;;;;;;;2.05;1.70;;;;;;;15.17;61.19;101800.66;4955603;28;20025;-68
2022/07/06 01:24:21;;;;;;;2.97;1.50;;;;;;;14.98;61.56;101796.19;4973229;28;20115;-70
2022/07/06 01:26:46;;;;;;;1.55;1.40;;;;;;;14.94;62.04;101792.94;4982377;28;20402;-68
2022/07/06 01:29:12;;;;;;;1.80;1.38;;;;;;;14.84;62.37;101800.09;4976911;28;20026;-67
2022/07/06 01:31:45;;;;;;;4.05;1.60;;;;;;;14.62;63.09;101796.69;4965083;28;20269;-68
2022/07/06 01:34:10;;;;;;;2.80;1.52;;;;;;;14.55;63.30;101804.38;4981172;28;20064;-67
2022/07/06 01:36:36;;;;;;;3.22;1.60;;;;;;;14.35;64.07;101798.13;4964760;28;20014;-69
2022/07/06 01:39:01;;;;;;;4.68;2.03;;;;;;;14.29;64.74;101801.34;4983079;28;20107;-67
2022/07/06 01:41:27;;;;;;;2.30;1.50;;;;;;;14.15;64.94;101802.56;4978332;28;19998;-68
2022/07/06 01:43:52;;;;;;;2.97;1.50;;;;;;;14.16;65.33;101792.78;4956404;28;20886;-68
2022/07/06 01:46:19;;;;;;;2.10;1.48;;;;;;;14.13;65.09;101790.34;4957210;28;20173;-69
2022/07/06 01:48:44;;;;;;;1.50;1.40;;;;;;;13.99;66.23;101796.88;4986029;28;20012;-69
2022/07/06 01:51:10;;;;;;;3.60;1.55;;;;;;;13.78;66.71;101800.44;4982036;28;20037;-68
2022/07/06 01:53:35;;;;;;;1.75;1.65;;;;;;;13.79;66.70;101791.47;4962500;28;20014;-69
2022/07/06 01:56:01;;;;;;;3.45;1.65;;;;;;;13.69;67.21;101790.56;4966118;28;20017;-68
2022/07/06 01:58:26;;;;;;;2.80;1.45;;;;;;;13.67;66.81;101798.69;4970219;28;20085;-67
2022/07/06 02:00:52;;;;;;;1.50;1.50;;;;;;;13.61;67.52;101798.34;4969337;28;20079;-68
2022/07/06 02:03:17;;;;;;;1.95;1.60;;;;;;;13.60;67.08;101796.69;4964922;28;20095;-69
2022/07/06 02:05:43;;;;;;;2.45;1.40;;;;;;;13.57;67.44;101787.97;4987106;28;20693;-66
2022/07/06 02:08:08;;;;;;;2.58;1.88;;;;;;;13.45;67.85;101788.19;4945736;28;20011;-67
2022/07/06 02:10:34;;;;;;;3.20;1.80;;;;;;;13.35;68.12;101788.97;4981025;28;20026;-66
2022/07/06 02:12:59;;;;;;;2.05;1.77;;;;;;;13.27;68.73;101790.53;4983481;28;20016;-67
2022/07/06 02:15:24;;;;;;;4.45;1.88;;;;;;;13.39;68.65;101801.00;4975742;28;20809;-67
2022/07/06 02:17:50;;;;;;;1.58;1.55;;;;;;;13.46;68.26;101793.38;4995872;28;20125;-68
2022/07/06 02:20:15;;;;;;;5.20;2.00;;;;;;;13.32;68.50;101794.50;4976753;28;20047;-66
2022/07/06 02:22:41;;;;;;;2.13;1.60;;;;;;;13.10;69.48;101792.81;4959347;28;20087;-68
2022/07/06 02:25:06;;;;;;;2.00;1.90;;;;;;;13.04;69.84;101802.13;4969768;28;21022;-69
2022/07/06 02:27:32;;;;;;;4.30;1.90;;;;;;;12.97;70.19;101795.66;4981658;28;20029;-67
2022/07/06 02:29:57;;;;;;;1.92;1.73;;;;;;;12.96;70.26;101799.28;4967402;28;20427;-67
2022/07/06 02:32:23;;;;;;;2.22;2.03;;;;;;;12.88;70.72;101807.84;4980399;28;20022;-67
2022/07/06 02:34:48;;;;;;;3.55;1.90;;;;;;;12.87;71.02;101807.97;4955956;28;20535;-67
2022/07/06 02:37:14;;;;;;;2.88;1.75;;;;;;;12.79;71.13;101807.75;4948248;28;20013;-67
2022/07/06 02:39:39;;;;;;;4.88;1.75;;;;;;;12.68;71.53;101798.88;4968198;28;20026;-67
2022/07/06 02:42:05;;;;;;;2.35;2.13;;;;;;;12.82;71.05;101805.72;4947725;28;20014;-67
2022/07/06 02:44:30;;;;;;;2.88;2.00;;;;;;;12.77;71.47;101799.09;4952725;28;20082;-68
2022/07/06 02:46:55;;;;;;;3.50;2.03;;;;;;;12.62;71.69;101795.84;4944957;28;20018;-67
2022/07/06 02:49:21;;;;;;;2.20;2.00;;;;;;;12.59;71.87;101799.59;4946422;28;20026;-68
2022/07/06 02:51:46;;;;;;;2.20;2.03;;;;;;;12.65;71.76;101801.78;4960594;28;20835;-67
2022/07/06 02:54:12;;;;;;;2.17;2.00;;;;;;;12.63;71.86;101793.06;4972443;28;20339;-67
2022/07/06 02:56:37;;;;;;;2.35;2.00;;;;;;;12.60;71.91;101795.97;4981103;28;20021;-67
2022/07/06 02:59:02;;;;;;;2.30;2.00;;;;;;;12.67;71.84;101802.47;4964603;28;20047;-68
2022/07/06 03:01:28;;;;;;;2.22;1.90;;;;;;;12.57;72.21;101806.03;4983318;28;20030;-66
2022/07/06 03:03:53;;;;;;;2.70;2.17;;;;;;;12.40;72.81;101815.34;4981825;28;20014;-67
2022/07/06 03:06:19;;;;;;;4.88;2.00;;;;;;;12.40;72.82;101813.50;4966560;28;20006;-67
2022/07/06 03:08:44;;;;;;;5.20;2.47;;;;;;;12.43;73.01;101812.44;4966592;28;20014;-67
2022/07/06 03:11:09;;;;;;;2.13;2.00;;;;;;;12.47;73.33;101804.09;4950398;28;20026;-67
2022/07/06 03:13:35;;;;;;;3.67;2.20;;;;;;;12.39;73.43;101811.81;4961065;28;20019;-67
2022/07/06 03:16:00;;;;;;;2.83;2.30;;;;;;;12.39;73.45;101806.50;4956716;28;20006;-67
2022/07/06 03:18:26;;;;;;;4.57;2.33;;;;;;;12.43;73.53;101810.59;4946794;28;20021;-69
2022/07/06 03:20:51;;;;;;;2.63;2.42;;;;;;;12.40;73.33;101812.69;4976446;28;20006;-68
2022/07/06 03:23:17;;;;;;;2.53;2.33;;;;;;;12.43;73.10;101815.09;4988224;28;20031;-67
2022/07/06 03:25:42;;;;;;;4.38;2.50;;;;;;;12.39;73.51;101816.28;4965880;28;20384;-68
2022/07/06 03:28:07;;;;;;;4.78;2.40;;;;;;;12.38;73.04;101815.47;4947610;28;20427;-67
2022/07/06 03:30:33;;;;;;;3.25;2.60;;;;;;;12.33;73.32;101812.31;4982299;28;20503;-67
2022/07/06 03:32:58;;;;;;;5.72;2.40;;;;;;;12.41;72.96;101824.97;4982045;28;20057;-67
2022/07/06 03:35:23;;;;;;;6.25;2.40;;;;;;;12.24;73.56;101819.22;4969338;28;20079;-67
2022/07/06 03:37:49;;;;;;;2.83;2.20;;;;;;;12.22;73.41;101826.44;4951174;28;20026;-67
2022/07/06 03:40:14;;;;;;;4.13;2.53;;;;;;;12.16;73.69;101827.75;4986101;28;20528;-68
2022/07/06 03:42:40;;;;;;;4.22;2.42;;;;;;;12.17;73.79;101829.44;4982910;28;20021;-67
2022/07/06 03:45:06;;;;;;;2.97;2.50;;;;;;;12.18;73.14;101822.31;4956420;28;20084;-68
2022/07/06 03:47:31;;;;;;;3.70;2.50;;;;;;;12.12;73.26;101825.47;4948774;28;20037;-67
2022/07/06 03:49:57;;;;;;;4.55;2.60;;;;;;;12.07;73.73;101817.88;4982499;28;20037;-68
2022/07/06 03:52:22;;;;;;;3.22;2.50;;;;;;;11.90;74.37;101820.94;4981399;28;20010;-67
2022/07/06 03:54:47;;;;;;;2.70;2.42;;;;;;;11.88;74.76;101825.53;4983323;28;20018;-67
2022/07/06 03:57:13;;;;;;;2.92;2.30;;;;;;;11.91;74.51;101823.47;4984658;28;20325;-67
2022/07/06 03:59:39;;;;;;;3.67;2.45;;;;;;;11.85;74.93;101835.41;4964674;28;20021;-67
2022/07/06 04:02:05;;;;;;;4.50;2.20;;;;;;;11.84;75.48;101838.19;4963308;28;20263;-68
2022/07/06 04:04:30;;;;;;;4.22;2.50;;;;;;;11.93;75.53;101834.84;4964415;28;20434;-68
2022/07/06 04:06:56;;;;;;;3.92;2.85;;;;;;;11.94;75.65;101833.88;4991243;28;20380;-67
2022/07/06 04:09:21;;;;;;;5.10;2.53;;;;;;;11.95;75.32;101826.78;4983225;28;20026;-68
2022/07/06 04:11:46;;;;;;;2.72;2.50;;;;;;;12.02;75.05;101823.53;5003942;28;20332;-67
2022/07/06 04:14:12;;;;;;;4.97;2.70;;;;;;;12.06;74.61;101832.09;4982695;28;20048;-67
2022/07/06 04:16:37;;;;;;;4.85;2.60;;;;;;;12.06;74.68;101831.28;4952070;28;20018;-67
2022/07/06 04:19:03;;;;;;;3.55;2.70;;;;;;;11.97;74.91;101831.03;4946371;28;20013;-64
2022/07/06 04:21:28;;;;;;;2.80;2.50;;;;;;;11.99;75.00;101825.59;4992076;28;20084;-67
2022/07/06 04:23:53;;;;;;;5.32;3.00;;;;;;;12.05;75.05;101833.06;4980894;28;20437;-66
2022/07/06 04:26:19;;;;;;;6.70;2.60;;;;;;;12.07;74.73;101817.88;4964232;28;20034;-68
2022/07/06 04:28:44;;;;;;;4.43;2.58;;;;;;;12.14;74.84;101837.66;4962372;28;20027;-66
2022/07/06 04:31:09;;;;;;;3.55;2.72;;;;;;;12.13;74.71;101829.81;4945457;28;20018;-66
2022/07/06 04:33:35;;;;;;;3.63;2.55;;;;;;;12.11;75.15;101842.34;4962371;28;20049;-67
2022/07/06 04:36:00;;;;;;;4.13;2.47;;;;;;;12.12;74.85;101839.56;4927369;28;20254;-68
2022/07/06 04:38:26;;;;;;;2.95;2.75;;;;;;;12.15;75.30;101841.16;4948400;28;20080;-67
2022/07/06 04:40:51;;;;;;;2.70;2.50;;;;;;;12.15;75.12;101844.63;4945423;28;20251;-68
2022/07/06 04:43:17;;;;;;;2.97;2.70;;;;;;;12.15;75.46;101836.66;4944792;28;20172;-66
2022/07/06 04:45:42;;;;;;;2.80;2.60;;;;;;;12.21;75.41;101838.00;4951573;28;20091;-67
2022/07/06 04:48:08;;;;;;;4.10;2.90;;;;;;;12.21;75.42;101840.66;4948119;28;20011;-66
2022/07/06 04:50:33;;;;;;;3.33;2.72;;;;;;;12.26;75.82;101840.31;4931513;28;20857;-67
2022/07/06 04:52:59;;;;;;;6.70;3.20;;;;;;;12.34;75.55;101846.69;4963440;28;20785;-67
2022/07/06 04:55:24;;;;;;;3.95;2.90;;;;;;;12.36;75.94;101839.44;4960034;28;20006;-66
2022/07/06 04:57:51;;;;;;;3.35;2.78;;;;;;;12.49;75.52;101843.78;4931849;28;20021;-68
2022/07/06 05:00:17;;;;;;;6.45;3.00;;;;;;;12.69;75.50;101847.50;4961350;28;20359;-66
2022/07/06 05:02:42;;;;;;;3.20;2.90;;;;;;;12.81;75.33;101840.38;4929907;28;20026;-67
2022/07/06 05:05:09;;;;;;;3.85;3.30;;;;;;;12.98;74.45;101839.81;4945055;28;20019;-66
2022/07/06 05:07:39;;;;;;;4.90;3.63;;;;;;;13.23;73.57;101829.84;4942082;28;20018;-66
2022/07/06 05:10:05;;;;;;;4.32;3.25;;;;;;;13.36;72.89;101842.97;4926464;28;20120;-65
2022/07/06 05:12:31;;;;;;;3.88;3.58;;;;;;;13.56;72.46;101844.81;4928003;28;20080;-67
2022/07/06 05:14:57;;;;;;;3.50;3.22;;;;;;;13.72;71.89;101847.03;4928126;28;20026;-66
2022/07/06 05:17:22;;;;;;;3.47;3.28;;;;;;;13.82;70.97;101849.75;4949283;28;20025;-67
2022/07/06 05:19:48;;;;;;;3.50;3.20;;;;;;;14.05;70.57;101854.91;4951555;28;20014;-67
2022/07/06 05:22:13;;;;;;;5.75;3.33;;;;;;;14.21;69.83;101852.63;4945287;28;20011;-67
2022/07/06 05:24:39;;;;;;;5.50;3.47;;;;;;;14.25;69.75;101855.84;4960441;28;20035;-66
2022/07/06 05:27:04;;;;;;;6.53;3.75;;;;;;;14.39;69.47;101858.13;4947020;28;20103;-67
2022/07/06 05:29:30;;;;;;;4.53;3.17;;;;;;;14.47;69.71;101860.13;4968594;28;20418;-67
2022/07/06 05:31:55;;;;;;;3.78;3.40;;;;;;;14.52;69.51;101857.06;4962676;28;20014;-67
2022/07/06 05:34:20;;;;;;;3.97;3.30;;;;;;;14.58;69.14;101857.38;4950391;28;20330;-66
2022/07/06 05:36:46;;;;;;;3.08;2.83;;;;;;;14.66;68.57;101856.72;4962899;28;20018;-68
2022/07/06 05:39:11;;;;;;;3.95;3.35;;;;;;;14.75;67.59;101847.91;4930205;28;20094;-67
2022/07/06 05:41:36;;;;;;;6.85;3.80;;;;;;;14.84;67.94;101858.72;4936156;28;20022;-66
2022/07/06 05:44:02;;;;;;;9.57;3.90;;;;;;;14.86;68.14;101852.28;4959358;28;20393;-67
2022/07/06 05:46:28;;;;;;;4.22;3.30;;;;;;;14.89;67.44;101848.47;4923629;28;20023;-66
2022/07/06 05:51:37;;;;;;;;;;;;;;;15.04;66.79;101847.09;4932956;28;20026;-67
2022/07/06 05:54:03;;;;;;;5.70;3.00;;;;;;;15.09;66.00;101850.19;4945940;28;20404;-66
2022/07/06 05:56:28;;;;;;;3.33;2.85;;;;;;;15.18;65.38;101853.84;4929720;28;20567;-66
2022/07/06 05:58:53;;;;;;;3.55;2.60;;;;;;;15.29;65.52;101852.88;4931143;28;20415;-67
2022/07/06 06:01:19;;;;;;;5.85;3.15;;;;;;;15.28;65.62;101859.19;4933401;28;20022;-66
2022/07/06 06:03:44;;;;;;;4.00;3.00;;;;;;;15.43;65.21;101864.94;4947104;28;20069;-67
2022/07/06 06:06:10;;;;;;;5.63;2.90;;;;;;;15.46;64.86;101862.81;4912954;28;20012;-65
2022/07/06 06:08:35;;;;;;;4.53;2.80;;;;;;;15.55;63.91;101863.81;4967272;28;20232;-67
2022/07/06 06:11:00;;;;;;;5.88;2.90;;;;;;;15.60;64.03;101871.38;4929351;28;20344;-66
2022/07/06 06:13:26;;;;;;;4.78;2.95;;;;;;;15.60;63.87;101874.06;4942437;28;20025;-66
2022/07/06 06:15:51;;;;;;;6.38;3.00;;;;;;;15.65;64.17;101871.78;4938483;28;20018;-65
2022/07/06 06:18:18;;;;;;;5.00;2.88;;;;;;;15.68;64.17;101871.53;4964175;28;20749;-67
2022/07/06 06:20:44;;;;;;;8.18;2.90;;;;;;;15.71;63.85;101865.91;4952117;28;20126;-67
2022/07/06 06:23:09;;;;;;;6.97;2.78;;;;;;;15.68;64.03;101876.00;4945188;28;20022;-66
2022/07/06 06:25:38;;;;;;;6.45;2.90;;;;;;;15.76;64.20;101881.47;4957942;28;20427;-67
2022/07/06 06:28:05;;;;;;;4.03;2.92;;;;;;;15.85;63.74;101879.78;4930293;28;20030;-66
2022/07/06 06:30:30;;;;;;;4.95;2.50;;;;;;;15.78;63.19;101880.34;4928302;28;20333;-66
2022/07/06 06:33:12;;;;;;;6.63;2.65;;;;;;;15.89;62.75;101879.38;4943883;28;20046;-66
2022/07/06 06:35:42;;;;;;;6.65;2.53;;;;;;;15.96;62.59;101883.16;4950438;28;20907;-67
2022/07/06 06:38:07;;;;;;;5.00;2.65;;;;;;;15.96;62.45;101885.81;4964963;28;20980;-67
2022/07/06 06:40:34;;;;;;;2.97;2.60;;;;;;;16.02;62.90;101888.88;4934795;28;20022;-67
2022/07/06 06:42:59;;;;;;;3.58;2.40;;;;;;;16.12;61.88;101887.88;4964479;28;20053;-66
2022/07/06 06:45:24;;;;;;;2.90;2.40;;;;;;;16.25;61.76;101884.06;4973860;28;20582;-67
2022/07/06 06:47:50;;;;;;;5.10;2.70;;;;;;;16.34;61.45;101880.50;4973279;28;20071;-66
2022/07/06 06:50:15;;;;;;;6.32;2.40;;;;;;;16.48;60.87;101887.19;4954862;28;20407;-67
2022/07/06 06:52:41;;;;;;;2.05;1.85;;;;;;;16.60;61.35;101893.19;4951612;28;20078;-66
2022/07/06 06:55:07;;;;;;;3.58;2.30;;;;;;;16.70;60.73;101888.63;4961935;28;20538;-67
2022/07/06 06:57:32;;;;;;;2.75;2.10;;;;;;;16.76;60.40;101885.34;4945354;28;20364;-67
2022/07/06 06:59:57;;;;;;;4.78;2.40;;;;;;;16.69;59.63;101892.28;4961216;28;20029;-66
2022/07/06 07:02:23;;;;;;;3.00;2.00;;;;;;;16.63;60.43;101885.69;4963760;28;20042;-66
2022/07/06 07:04:48;;;;;;;3.10;2.45;;;;;;;16.61;59.63;101884.16;4941219;28;20010;-66
2022/07/06 07:07:14;;;;;;;3.22;2.42;;;;;;;16.60;60.00;101888.69;4965089;28;20279;-67
2022/07/06 07:09:39;;;;;;;7.95;2.40;;;;;;;16.68;60.06;101895.09;4949149;28;20010;-66
2022/07/06 07:12:05;;;;;;;4.85;2.17;;;;;;;16.65;59.30;101897.09;4984980;28;20045;-65
2022/07/06 07:14:30;;;;;;;5.65;2.30;;;;;;;16.71;59.78;101898.34;4958894;28;20117;-68
2022/07/06 07:16:55;;;;;;;5.85;1.90;;;;;;;16.90;59.27;101896.56;4956634;28;20580;-66
2022/07/06 07:19:21;;;;;;;2.85;2.10;;;;;;;17.07;59.67;101895.75;4954626;28;20084;-67
2022/07/06 07:21:46;;;;;;;2.00;1.90;;;;;;;17.24;59.00;101901.25;4982612;28;20016;-66
2022/07/06 07:24:12;;;;;;;1.95;1.85;;;;;;;17.18;59.03;101892.00;4946243;28;20049;-68
2022/07/06 07:26:37;;;;;;;3.25;2.00;;;;;;;17.39;58.89;101894.38;4948311;28;20932;-67
2022/07/06 07:29:02;;;;;;;2.42;2.13;;;;;;;17.41;58.08;101892.38;4942636;28;20023;-67
2022/07/06 07:31:28;;;;;;;4.68;1.90;;;;;;;17.40;57.60;101890.72;4963370;28;20461;-67
2022/07/06 07:33:56;;;;;;;4.88;1.90;;;;;;;17.50;58.57;101891.47;4980384;28;20095;-68
2022/07/06 07:36:22;;;;;;;10.20;1.92;;;;;;;17.47;58.72;101891.78;4980657;28;20193;-67
2022/07/06 07:38:48;;;;;;;5.50;2.03;;;;;;;17.58;58.64;101889.84;4986243;28;20972;-67
2022/07/06 07:41:13;;;;;;;2.63;1.52;;;;;;;17.88;57.98;101893.09;4977950;28;20045;-66
2022/07/06 07:43:39;;;;;;;2.88;1.40;;;;;;;17.83;55.85;101891.72;4989620;28;20263;-67
2022/07/06 07:46:04;;;;;;;2.95;1.40;;;;;;;17.74;56.06;101900.69;4992959;28;20006;-64
2022/07/06 07:48:30;;;;;;;3.22;1.60;;;;;;;17.58;57.59;101895.22;4985035;28;20241;-67
2022/07/06 07:50:55;;;;;;;2.42;1.50;;;;;;;17.47;57.78;101897.13;4957132;28;20030;-65
2022/07/06 07:53:21;;;;;;;3.20;1.27;;;;;;;17.41;55.68;101897.72;4970805;28;20041;-68
2022/07/06 07:55:46;;;;;;;3.20;1.10;;;;;;;17.41;57.00;101892.38;4946759;28;20099;-66
2022/07/06 07:58:11;;;;;;;2.92;1.30;;;;;;;17.40;56.29;101903.25;4943964;28;20736;-67
2022/07/06 08:00:37;;;;;;;3.10;1.00;;;;;;;17.33;56.34;101895.84;4945464;28;20014;-67
2022/07/06 08:03:02;;;;;;;2.28;1.33;;;;;;;17.16;55.35;101905.53;4958807;28;20546;-68
2022/07/06 08:05:28;;;;;;;2.38;1.05;;;;;;;17.16;56.48;101899.34;4963846;28;20018;-66
2022/07/06 08:07:53;;;;;;;2.88;1.25;;;;;;;17.29;55.45;101904.34;4959223;28;20018;-66
2022/07/06 08:10:19;;;;;;;1.85;1.13;;;;;;;17.29;55.28;101893.63;4946311;28;20255;-67
2022/07/06 08:12:44;;;;;;;2.33;1.10;;;;;;;17.49;56.28;101894.31;4925538;28;20117;-67
2022/07/06 08:15:10;;;;;;;2.40;1.30;;;;;;;17.59;56.92;101900.41;4952994;28;21077;-66
2022/07/06 08:17:35;;;;;;;4.88;1.48;;;;;;;17.76;56.25;101898.69;4969012;28;20060;-67
2022/07/06 08:20:01;;;;;;;5.88;1.50;;;;;;;17.87;55.03;101894.94;4976994;28;20424;-67
2022/07/06 08:22:27;;;;;;;1.23;1.00;;;;;;;17.90;54.86;101901.81;4963976;28;20473;-67
2022/07/06 08:24:52;;;;;;;3.00;1.10;;;;;;;17.90;54.14;101901.81;4960868;28;20452;-67
2022/07/06 08:27:17;;;;;;;1.48;1.00;;;;;;;17.87;54.17;101900.28;4942777;28;20041;-66
2022/07/06 08:29:43;;;;;;;1.27;1.05;;;;;;;17.85;53.39;101897.78;4944180;28;20489;-67
2022/07/06 08:32:08;;;;;;;2.13;1.00;;;;;;;17.90;53.79;101901.81;4944139;28;20113;-67
2022/07/06 08:34:34;;;;;;;3.00;1.17;;;;;;;17.95;54.67;101888.81;4945315;28;20570;-67
2022/07/06 08:36:59;;;;;;;3.65;1.00;;;;;;;17.99;53.87;101896.41;4963659;28;20075;-70
2022/07/06 08:39:25;;;;;;;1.20;1.00;;;;;;;18.07;54.11;101892.91;4960995;28;20010;-67
2022/07/06 08:41:50;;;;;;;2.60;1.10;;;;;;;18.07;53.30;101895.59;4963326;28;20026;-67
2022/07/06 08:44:16;;;;;;;1.90;0.82;;;;;;;18.01;52.21;101898.91;4940001;28;20030;-65
2022/07/06 08:46:41;;;;;;;4.97;1.17;;;;;;;18.21;52.22;101893.34;4959481;28;20026;-67
2022/07/06 08:49:07;;;;;;;1.85;0.95;;;;;;;18.45;52.25;101890.75;4930821;28;20006;-66
2022/07/06 08:51:36;;;;;;;4.70;1.10;;;;;;;18.83;51.79;101883.19;4971301;28;20018;-68
2022/07/06 08:54:02;;;;;;;2.28;0.90;;;;;;;18.96;50.85;101884.59;4964201;28;20098;-68
2022/07/06 08:56:27;;;;;;;1.42;1.20;;;;;;;19.11;54.00;101891.00;4963889;28;20009;-66
2022/07/06 08:58:53;;;;;;;2.70;1.05;;;;;;;19.42;53.07;101882.31;4965223;28;20014;-69
2022/07/06 09:01:19;;;;;;;2.63;0.90;;;;;;;19.30;51.55;101883.66;4950395;28;20087;-66
2022/07/06 09:03:45;;;;;;;2.15;0.80;;;;;;;19.49;52.14;101879.81;4966854;28;20017;-67
2022/07/06 09:06:11;;;;;;;1.60;0.68;;;;;;;19.65;49.81;101881.63;4952888;28;20079;-68
2022/07/06 09:08:36;;;;;;;2.60;0.90;;;;;;;19.83;49.53;101885.00;4963950;28;20093;-67
2022/07/06 09:11:03;;;;;;;1.38;0.90;;;;;;;19.73;47.41;101884.31;4985022;28;20121;-69
2022/07/06 09:13:28;;;;;;;1.35;0.60;;;;;;;19.71;45.88;101884.50;4950638;28;20030;-64
2022/07/06 09:15:54;;;;;;;3.60;0.60;;;;;;;19.88;46.54;101882.66;4958835;28;20916;-68
2022/07/06 09:18:21;;;;;;;1.15;0.63;;;;;;;20.45;44.10;101880.81;4962873;28;20335;-66
2022/07/06 09:20:47;;;;;;;1.73;0.80;;;;;;;20.66;46.09;101877.53;4958866;28;20090;-69
2022/07/06 09:23:15;;;;;;;0.75;0.70;;;;;;;20.68;46.38;101877.38;4977707;28;20462;-67
2022/07/06 09:25:41;;;;;;;0.93;0.60;;;;;;;20.76;43.05;101880.84;4951043;28;20022;-67
2022/07/06 09:28:06;;;;;;;0.63;0.50;;;;;;;20.88;42.99;101884.00;4948967;28;20041;-67
2022/07/06 09:30:32;;;;;;;1.52;0.60;;;;;;;20.32;43.41;101878.69;4949221;28;20251;-66
2022/07/06 09:32:58;;;;;;;1.25;0.55;;;;;;;20.16;43.70;101879.53;4929826;28;20018;-64
2022/07/06 09:35:24;;;;;;;0.40;0.40;;;;;;;19.95;42.83;101874.72;4949962;28;20018;-67
2022/07/06 09:38:05;;;;;;;0.70;0.70;;;;;;;19.78;43.81;101881.94;4968115;28;20030;-66
2022/07/06 09:40:35;;;;;;;0.95;0.70;;;;;;;19.77;45.28;101882.13;4933346;28;20118;-67
2022/07/06 09:43:21;;;;;;;1.60;0.60;;;;;;;19.52;43.62;101884.84;4963458;28;20110;-67
2022/07/06 09:45:54;;;;;;;3.65;0.60;;;;;;;19.35;44.42;101886.69;4936560;28;20050;-68
2022/07/06 09:48:21;;;;;;;2.47;0.50;;;;;;;19.29;44.52;101881.97;4960198;28;20521;-68
2022/07/06 09:51:06;;;;;;;3.95;0.60;;;;;;;19.25;45.35;101881.47;4953846;28;20030;-66
2022/07/06 09:53:34;;;;;;;1.40;0.60;;;;;;;19.29;45.41;101882.81;4946315;28;20034;-67
2022/07/06 09:56:01;;;;;;;0.80;0.73;;;;;;;19.26;45.46;101884.97;4924972;28;20018;-67
2022/07/06 09:58:27;;;;;;;3.22;0.70;;;;;;;19.19;45.41;101882.13;4952703;28;20859;-67
2022/07/06 10:00:52;;;;;;;1.83;0.77;;;;;;;19.09;45.86;101889.50;4926284;28;20027;-67
2022/07/06 10:03:18;;;;;;;0.80;0.50;;;;;;;19.09;46.34;101886.81;4936440;28;20476;-67
2022/07/06 10:05:46;;;;;;;1.90;0.93;;;;;;;18.95;47.07;101880.22;4923124;28;20478;-67
2022/07/06 10:08:12;;;;;;;1.13;0.70;;;;;;;19.11;46.59;101888.31;4923534;28;20034;-67
2022/07/06 10:10:38;;;;;;;3.55;0.70;;;;;;;19.10;47.71;101889.31;4927286;28;20506;-67
2022/07/06 10:13:07;;;;;;;1.67;0.70;;;;;;;18.99;46.17;101885.09;4909849;28;20011;-67
2022/07/06 10:15:34;;;;;;;3.17;0.70;;;;;;;19.22;45.73;101890.69;4922283;28;20130;-67
2022/07/06 10:18:00;;;;;;;1.77;0.75;;;;;;;20.23;44.53;101887.75;4929589;28;20006;-66
2022/07/06 10:20:31;;;;;;;2.05;1.00;;;;;;;20.33;43.99;101887.56;4951301;28;20287;-67
2022/07/06 10:22:58;;;;;;;4.50;0.80;;;;;;;20.79;43.44;101892.28;4949975;28;20752;-69
2022/07/06 10:25:23;;;;;;;2.67;0.70;;;;;;;20.61;43.72;101882.56;4958661;28;20009;-67
2022/07/06 10:27:49;;;;;;;2.00;0.93;;;;;;;21.37;42.59;101887.34;4965907;28;20224;-67
2022/07/06 10:30:15;;;;;;;1.67;1.00;;;;;;;22.11;40.85;101887.53;4949107;28;20022;-67
2022/07/06 10:32:41;;;;;;;3.50;0.93;;;;;;;22.48;40.83;101879.53;4997215;28;20029;-69
2022/07/06 10:35:07;;;;;;;1.13;0.63;;;;;;;23.22;41.32;101877.69;4975801;28;20762;-66
2022/07/06 10:37:33;;;;;;;0.90;0.63;;;;;;;23.28;40.52;101875.03;4996363;28;20263;-68
2022/07/06 10:42:43;;;;;;;;;;;;;;;24.20;37.99;101872.41;4983866;28;20307;-67
2022/07/06 10:45:10;;;;;;;3.58;0.80;;;;;;;24.22;37.48;101874.91;4975619;28;20652;-65
2022/07/06 10:47:36;;;;;;;1.50;0.65;;;;;;;23.87;37.19;101873.03;4946365;28;20263;-68
2022/07/06 10:50:03;;;;;;;2.05;0.90;;;;;;;24.26;36.90;101855.34;4965360;28;20819;-68
2022/07/06 10:52:59;;;;;;;2.67;0.70;;;;;;;24.25;37.29;101861.78;4944113;28;20022;-65
2022/07/06 10:55:29;;;;;;;1.13;1.00;;;;;;;23.30;38.19;101858.66;4957487;28;20103;-67
2022/07/06 10:57:54;;;;;;;1.80;0.70;;;;;;;23.24;38.44;101868.34;4969161;28;20518;-67
2022/07/06 11:00:20;;;;;;;1.63;0.80;;;;;;;23.59;37.42;101863.03;4974022;28;20009;-68
2022/07/06 11:02:46;;;;;;;1.30;0.73;;;;;;;24.32;36.33;101864.53;4966594;28;20265;-68
2022/07/06 11:05:12;;;;;;;2.10;0.73;;;;;;;24.20;35.41;101858.03;4979518;28;20113;-68
2022/07/06 11:07:48;;;;;;;1.08;0.60;;;;;;;24.44;34.46;101856.69;4963609;28;20978;-67
2022/07/06 11:10:14;;;;;;;1.50;0.60;;;;;;;23.57;34.78;101854.28;4988636;28;20850;-67
2022/07/06 11:12:44;;;;;;;1.08;0.70;;;;;;;23.66;35.51;101863.06;4970567;28;20331;-69
2022/07/06 11:15:09;;;;;;;0.52;0.52;;;;;;;24.31;33.73;101858.31;4955046;28;20006;-68
2022/07/06 11:17:34;;;;;;;1.55;0.70;;;;;;;24.44;34.08;101852.13;4960094;28;20022;-67
2022/07/06 11:20:09;;;;;;;1.02;0.65;;;;;;;24.26;34.09;101847.25;4970650;28;20414;-67
2022/07/06 11:22:38;;;;;;;1.52;0.70;;;;;;;24.22;34.75;101855.97;4981906;28;20032;-68
2022/07/06 11:25:06;;;;;;;1.27;0.80;;;;;;;24.04;34.47;101860.03;4951392;28;20033;-68
2022/07/06 11:27:32;;;;;;;2.90;1.00;;;;;;;23.70;33.76;101856.25;4984576;28;20095;-68